createdAt,value
2023-01-29T00:02:29.296Z,22.75
2023-01-29T00:04:59.054Z,24.20
2023-01-29T00:07:27.511Z,25.10
2023-01-29T00:09:55.456Z,23.90
2023-01-29T00:12:23.623Z,20.30
2023-01-29T00:14:51.837Z,22.50
2023-01-29T00:17:19.890Z,20.97
2023-01-29T00:19:49.539Z,19.37
2023-01-29T00:22:17.745Z,22.17
2023-01-29T00:24:45.877Z,20.43
2023-01-29T00:27:13.790Z,26.57
2023-01-29T00:29:42.118Z,19.63
2023-01-29T00:32:10.317Z,18.70
2023-01-29T00:34:38.714Z,21.50
2023-01-29T00:37:09.473Z,19.53
2023-01-29T00:39:47.897Z,24.00
2023-01-29T00:42:34.105Z,44.55
2023-01-29T00:45:02.270Z,19.57
2023-01-29T00:47:34.656Z,19.20
2023-01-29T00:50:03.231Z,28.00
2023-01-29T00:52:33.140Z,20.30
2023-01-29T00:55:02.074Z,21.65
2023-01-29T00:57:32.029Z,25.27
2023-01-29T01:00:00.178Z,24.58
2023-01-29T01:02:46.967Z,23.77
2023-01-29T01:05:18.889Z,18.65
2023-01-29T01:07:50.382Z,21.77
2023-01-29T01:10:24.207Z,19.52
2023-01-29T01:12:56.693Z,23.85
2023-01-29T01:15:26.276Z,17.67
2023-01-29T01:17:55.609Z,23.33
2023-01-29T01:20:23.759Z,24.17
2023-01-29T01:22:54.518Z,26.17
2023-01-29T01:25:22.891Z,26.05
2023-01-29T01:27:54.353Z,27.70
2023-01-29T01:30:22.952Z,30.40
2023-01-29T01:32:51.265Z,23.67
2023-01-29T01:35:20.243Z,25.25
2023-01-29T01:37:48.696Z,26.00
2023-01-29T01:40:20.413Z,22.38
2023-01-29T01:42:50.894Z,29.75
2023-01-29T01:45:26.209Z,26.05
2023-01-29T01:47:58.301Z,25.17
2023-01-29T01:50:31.005Z,29.10
2023-01-29T01:53:03.843Z,36.15
2023-01-29T01:55:35.334Z,27.20
2023-01-29T01:58:10.119Z,28.08
2023-01-29T02:00:38.452Z,29.40
2023-01-29T02:03:26.371Z,29.27
2023-01-29T02:06:14.048Z,30.27
2023-01-29T02:09:06.435Z,22.02
2023-01-29T02:11:35.787Z,20.02
2023-01-29T02:14:04.065Z,27.23
2023-01-29T02:16:32.499Z,31.60
2023-01-29T02:19:00.609Z,26.40
2023-01-29T02:21:51.401Z,28.55
2023-01-29T02:24:52.550Z,27.02
2023-01-29T02:27:25.941Z,26.85
2023-01-29T02:30:03.897Z,29.48
2023-01-29T02:32:54.820Z,23.45
2023-01-29T02:35:32.001Z,26.20
2023-01-29T02:38:13.387Z,25.85
2023-01-29T02:40:47.035Z,26.77
2023-01-29T02:43:29.830Z,22.45
2023-01-29T02:46:06.731Z,14.77
2023-01-29T02:48:43.284Z,22.42
2023-01-29T02:51:20.282Z,23.92
2023-01-29T02:53:56.039Z,20.08
2023-01-29T02:56:31.326Z,21.60
2023-01-29T02:59:04.523Z,28.27
2023-01-29T03:01:40.001Z,23.77
2023-01-29T03:04:13.055Z,26.70
2023-01-29T03:06:45.095Z,23.10
2023-01-29T03:09:21.302Z,17.02
2023-01-29T03:11:54.015Z,20.30
2023-01-29T03:14:49.624Z,23.08
2023-01-29T03:17:21.310Z,23.38
2023-01-29T03:19:51.073Z,20.40
2023-01-29T03:22:21.975Z,23.40
2023-01-29T03:25:11.370Z,19.55
2023-01-29T03:28:00.423Z,22.92
2023-01-29T03:30:49.926Z,25.92
2023-01-29T03:33:22.514Z,19.17
2023-01-29T03:35:56.881Z,22.92
2023-01-29T03:38:29.562Z,24.40
2023-01-29T03:41:04.686Z,25.63
2023-01-29T03:43:38.012Z,26.95
2023-01-29T03:46:11.809Z,21.63
2023-01-29T03:48:48.197Z,22.33
2023-01-29T03:51:28.109Z,23.15
2023-01-29T03:54:05.619Z,20.63
2023-01-29T03:56:44.709Z,20.75
2023-01-29T03:59:20.801Z,21.48
2023-01-29T04:01:53.123Z,24.73
2023-01-29T04:04:26.355Z,24.92
2023-01-29T04:06:58.865Z,33.03
2023-01-29T04:09:32.679Z,27.98
2023-01-29T04:12:05.749Z,29.27
2023-01-29T04:14:34.580Z,19.45
2023-01-29T04:17:09.446Z,28.48
2023-01-29T04:19:39.777Z,23.42
2023-01-29T04:22:14.343Z,27.23
2023-01-29T04:24:43.594Z,29.13
2023-01-29T04:27:25.329Z,28.65
2023-01-29T04:30:09.260Z,23.52
2023-01-29T04:32:51.947Z,20.30
2023-01-29T04:35:29.966Z,21.67
2023-01-29T04:38:08.815Z,22.40
2023-01-29T04:40:47.527Z,19.80
2023-01-29T04:43:20.642Z,22.65
2023-01-29T04:46:01.083Z,28.00
2023-01-29T04:48:34.048Z,23.08
2023-01-29T04:51:09.638Z,27.35
2023-01-29T04:53:42.837Z,27.35
2023-01-29T04:56:18.915Z,27.38
2023-01-29T04:58:51.374Z,24.20
2023-01-29T05:01:22.465Z,22.75
2023-01-29T05:03:55.385Z,23.83
2023-01-29T05:06:26.544Z,24.88
2023-01-29T05:08:56.154Z,24.95
2023-01-29T05:11:25.910Z,25.73
2023-01-29T05:13:54.525Z,28.58
2023-01-29T05:16:27.344Z,24.83
2023-01-29T05:18:56.448Z,26.35
2023-01-29T05:21:28.889Z,27.48
2023-01-29T05:24:08.771Z,29.88
2023-01-29T05:26:54.544Z,25.88
2023-01-29T05:29:23.159Z,24.33
2023-01-29T05:31:51.617Z,27.65
2023-01-29T05:34:20.120Z,24.20
2023-01-29T05:36:49.576Z,24.08
2023-01-29T05:39:18.160Z,27.13
2023-01-29T05:41:46.799Z,25.10
2023-01-29T05:44:15.312Z,21.58
2023-01-29T05:46:43.857Z,22.60
2023-01-29T05:49:12.493Z,16.42
2023-01-29T05:51:40.513Z,23.63
2023-01-29T05:54:12.554Z,26.48
2023-01-29T05:56:40.675Z,23.98
2023-01-29T05:59:08.582Z,26.85
2023-01-29T06:01:36.993Z,23.67
2023-01-29T06:04:05.063Z,24.70
2023-01-29T06:06:33.003Z,26.25
2023-01-29T06:09:01.085Z,27.98
2023-01-29T06:11:30.375Z,21.48
2023-01-29T06:13:58.551Z,24.60
2023-01-29T06:16:26.900Z,24.15
2023-01-29T06:18:55.138Z,24.77
2023-01-29T06:21:23.133Z,25.45
2023-01-29T06:23:54.161Z,34.45
2023-01-29T06:26:22.513Z,32.28
2023-01-29T06:28:52.428Z,26.70
2023-01-29T06:31:36.889Z,31.33
2023-01-29T06:34:06.160Z,25.45
2023-01-29T06:36:34.700Z,25.70
2023-01-29T06:39:02.676Z,21.30
2023-01-29T06:41:31.046Z,23.83
2023-01-29T06:44:00.929Z,25.77
2023-01-29T06:46:28.906Z,23.27
2023-01-29T06:48:59.274Z,24.60
2023-01-29T06:51:28.092Z,26.50
2023-01-29T06:53:57.076Z,29.92
2023-01-29T06:56:25.879Z,29.25
2023-01-29T06:58:54.639Z,28.75
2023-01-29T07:01:35.700Z,23.95
2023-01-29T07:04:04.888Z,32.95
2023-01-29T07:06:33.519Z,24.85
2023-01-29T07:09:01.537Z,32.20
2023-01-29T07:11:29.824Z,33.40
2023-01-29T07:13:58.047Z,38.05
2023-01-29T07:16:28.172Z,39.88
2023-01-29T07:18:56.937Z,35.63
2023-01-29T07:21:25.136Z,32.60
2023-01-29T07:23:53.099Z,32.67
2023-01-29T07:26:21.053Z,34.90
2023-01-29T07:28:48.956Z,37.58
2023-01-29T07:31:17.232Z,39.03
2023-01-29T07:33:46.865Z,42.25
2023-01-29T07:36:17.638Z,32.28
2023-01-29T07:38:45.528Z,33.20
2023-01-29T07:41:14.057Z,46.72
2023-01-29T07:43:42.602Z,49.78
2023-01-29T07:46:10.791Z,38.28
2023-01-29T07:48:39.191Z,36.78
2023-01-29T07:51:09.537Z,31.48
2023-01-29T07:53:38.333Z,31.85
2023-01-29T07:56:06.916Z,34.15
2023-01-29T07:58:36.757Z,36.78
2023-01-29T08:01:07.521Z,40.60
2023-01-29T08:03:36.371Z,30.80
2023-01-29T08:06:05.326Z,36.03
2023-01-29T08:08:35.104Z,31.42
2023-01-29T08:11:04.098Z,39.00
2023-01-29T08:13:32.075Z,32.33
2023-01-29T08:16:03.956Z,30.08
2023-01-29T08:18:32.541Z,36.70
2023-01-29T08:21:02.049Z,37.73
2023-01-29T08:23:30.962Z,37.35
2023-01-29T08:26:00.474Z,39.97
2023-01-29T08:28:28.909Z,37.58
2023-01-29T08:30:57.643Z,32.83
2023-01-29T08:33:38.701Z,40.42
2023-01-29T08:36:08.749Z,33.42
2023-01-29T08:38:37.502Z,39.03
2023-01-29T08:41:07.316Z,37.28
2023-01-29T08:43:37.337Z,37.40
2023-01-29T08:46:06.125Z,29.80
2023-01-29T08:48:34.345Z,34.45
2023-01-29T08:51:04.911Z,40.25
2023-01-29T08:53:35.326Z,35.70
2023-01-29T08:56:03.302Z,26.65
2023-01-29T08:58:32.992Z,33.03
2023-01-29T09:01:08.091Z,39.42
2023-01-29T09:03:41.280Z,37.88
2023-01-29T09:06:11.847Z,38.78
2023-01-29T09:08:40.159Z,33.55
2023-01-29T09:11:12.396Z,34.17
2023-01-29T09:13:42.083Z,31.52
2023-01-29T09:16:11.588Z,36.80
2023-01-29T09:18:39.895Z,35.10
2023-01-29T09:21:07.960Z,36.92
2023-01-29T09:23:36.221Z,38.35
2023-01-29T09:26:04.678Z,32.67
2023-01-29T09:28:32.653Z,36.25
2023-01-29T09:31:04.292Z,34.85
2023-01-29T09:33:32.553Z,29.48
2023-01-29T09:36:00.575Z,31.13
2023-01-29T09:38:29.116Z,41.35
2023-01-29T09:41:04.852Z,31.85
2023-01-29T09:43:44.895Z,34.85
2023-01-29T09:46:20.478Z,31.17
2023-01-29T09:48:54.271Z,35.28
2023-01-29T09:51:31.625Z,27.67
2023-01-29T09:54:08.976Z,36.97
2023-01-29T09:56:36.915Z,36.45
2023-01-29T09:59:04.873Z,33.70
2023-01-29T10:01:41.968Z,23.67
2023-01-29T10:04:30.261Z,34.17
2023-01-29T10:07:16.573Z,33.10
2023-01-29T10:09:58.422Z,31.80
2023-01-29T10:12:41.239Z,35.72
2023-01-29T10:15:23.383Z,32.05
2023-01-29T10:18:10.003Z,31.95
2023-01-29T10:21:06.823Z,35.00
2023-01-29T10:23:38.277Z,33.10
2023-01-29T10:26:10.755Z,35.08
2023-01-29T10:28:46.325Z,43.30
2023-01-29T10:31:19.775Z,49.40
2023-01-29T10:34:02.421Z,42.30
2023-01-29T10:36:42.944Z,43.88
2023-01-29T10:42:19.803Z,39.53
2023-01-29T10:45:00.171Z,37.00
2023-01-29T10:47:54.155Z,44.78
2023-01-29T10:50:48.419Z,31.88
2023-01-29T10:57:18.319Z,37.25
2023-01-29T11:00:18.629Z,38.67
2023-01-29T11:02:49.320Z,38.58
2023-01-29T11:05:35.648Z,24.45
2023-01-29T11:08:11.571Z,34.05
2023-01-29T11:10:47.056Z,35.92
2023-01-29T11:13:17.494Z,32.20
2023-01-29T11:15:45.722Z,39.00
2023-01-29T11:18:16.155Z,32.47
2023-01-29T11:20:47.956Z,34.00
2023-01-29T11:23:28.942Z,33.55
2023-01-29T11:25:59.486Z,39.72
2023-01-29T11:28:38.123Z,33.22
2023-01-29T11:31:18.261Z,33.30
2023-01-29T11:33:47.732Z,42.70
2023-01-29T11:36:46.834Z,29.48
2023-01-29T11:39:23.871Z,36.33
2023-01-29T11:42:01.958Z,41.83
2023-01-29T11:44:46.672Z,34.42
2023-01-29T11:47:20.668Z,31.77
2023-01-29T11:50:12.404Z,38.15
2023-01-29T11:53:04.967Z,39.45
2023-01-29T11:55:50.293Z,33.60
2023-01-29T11:58:43.822Z,43.20
2023-01-29T12:01:58.594Z,43.78
2023-01-29T12:04:28.439Z,39.13
2023-01-29T12:06:56.974Z,43.92
2023-01-29T12:09:29.046Z,27.65
2023-01-29T12:11:57.279Z,35.42
2023-01-29T12:15:20.005Z,33.78
2023-01-29T12:17:26.933Z,42.85
2023-01-29T12:19:59.044Z,36.08
2023-01-29T12:22:45.606Z,34.88
2023-01-29T12:25:24.292Z,48.63
2023-01-29T12:28:03.871Z,43.03
2023-01-29T12:30:47.691Z,45.10
2023-01-29T12:33:22.540Z,35.28
2023-01-29T12:35:58.181Z,42.15
2023-01-29T12:38:26.777Z,43.17
2023-01-29T12:41:10.037Z,42.08
2023-01-29T12:43:41.595Z,44.17
2023-01-29T12:46:19.841Z,36.35
2023-01-29T12:48:49.788Z,44.15
2023-01-29T12:51:24.292Z,37.72
2023-01-29T12:53:58.616Z,35.83
2023-01-29T12:56:37.409Z,39.45
2023-01-29T12:59:20.493Z,41.25
2023-01-29T13:02:01.619Z,37.08
2023-01-29T13:04:43.753Z,36.30
2023-01-29T13:07:19.293Z,35.53
2023-01-29T13:09:52.393Z,38.08
2023-01-29T13:12:39.018Z,39.25
2023-01-29T13:15:23.523Z,45.58
2023-01-29T13:18:09.284Z,42.63
2023-01-29T13:20:39.000Z,39.58
2023-01-29T13:23:32.335Z,41.13
2023-01-29T13:26:05.722Z,44.13
2023-01-29T13:28:41.161Z,47.65
2023-01-29T13:34:26.403Z,49.17
2023-01-29T13:36:57.473Z,36.22
2023-01-29T13:39:30.036Z,44.33
2023-01-29T13:42:00.729Z,44.13
2023-01-29T13:44:35.674Z,39.60
2023-01-29T13:50:07.970Z,43.63
2023-01-29T13:52:40.932Z,41.47
2023-01-29T13:55:24.386Z,41.42
2023-01-29T13:57:56.166Z,41.33
2023-01-29T14:00:54.181Z,42.30
2023-01-29T14:04:04.663Z,39.72
2023-01-29T14:06:52.117Z,44.88
2023-01-29T14:10:00.171Z,40.65
2023-01-29T14:12:39.379Z,38.55
2023-01-29T14:15:27.349Z,46.67
2023-01-29T14:17:59.839Z,49.22
2023-01-29T14:20:45.083Z,36.47
2023-01-29T14:23:26.139Z,42.58
2023-01-29T14:25:54.535Z,44.45
2023-01-29T14:28:25.361Z,67.43
2023-01-29T14:30:53.831Z,40.03
2023-01-29T14:33:34.416Z,45.90
2023-01-29T14:36:08.219Z,41.58
2023-01-29T14:38:37.029Z,46.33
2023-01-29T14:41:17.164Z,45.42
2023-01-29T14:43:45.242Z,46.90
2023-01-29T14:46:45.829Z,38.83
2023-01-29T14:49:14.115Z,43.30
2023-01-29T14:51:46.682Z,31.98
2023-01-29T14:54:24.136Z,39.45
2023-01-29T14:57:00.653Z,36.45
2023-01-29T14:59:35.714Z,33.13
2023-01-29T15:02:14.571Z,39.88
2023-01-29T15:04:47.981Z,39.05
2023-01-29T15:07:37.804Z,37.13
2023-01-29T15:10:22.437Z,42.15
2023-01-29T15:12:58.241Z,38.60
2023-01-29T15:15:35.594Z,39.72
2023-01-29T15:18:09.472Z,41.28
2023-01-29T15:20:39.642Z,36.45
2023-01-29T15:23:27.100Z,37.47
2023-01-29T15:25:57.938Z,46.45
2023-01-29T15:28:26.578Z,39.47
2023-01-29T15:30:59.273Z,44.22
2023-01-29T15:33:32.738Z,39.38
2023-01-29T15:36:07.994Z,38.40
2023-01-29T15:38:37.926Z,39.40
2023-01-29T15:41:19.522Z,35.30
2023-01-29T15:43:56.565Z,47.13
2023-01-29T15:46:28.742Z,42.75
2023-01-29T15:49:03.600Z,44.00
2023-01-29T15:54:32.528Z,35.50
2023-01-29T15:57:02.319Z,42.53
2023-01-29T15:59:35.487Z,49.60
2023-01-29T16:02:28.733Z,48.58
2023-01-29T16:04:57.880Z,46.58
2023-01-29T16:07:26.480Z,46.03
2023-01-29T16:09:57.801Z,42.95
2023-01-29T16:12:26.667Z,40.90
2023-01-29T16:14:54.946Z,44.97
2023-01-29T16:17:28.620Z,46.25
2023-01-29T16:19:57.865Z,51.97
2023-01-29T16:22:27.440Z,46.88
2023-01-29T16:24:59.231Z,48.13
2023-01-29T16:27:27.941Z,46.17
2023-01-29T16:29:55.951Z,52.85
2023-01-29T16:32:23.996Z,45.00
2023-01-29T16:34:58.543Z,42.30
2023-01-29T16:37:30.075Z,41.20
2023-01-29T16:40:00.604Z,42.92
2023-01-29T16:42:30.896Z,41.55
2023-01-29T16:45:02.276Z,38.40
2023-01-29T16:47:33.457Z,39.95
2023-01-29T16:50:05.522Z,41.00
2023-01-29T16:52:35.843Z,45.92
2023-01-29T16:55:22.107Z,55.33
2023-01-29T16:57:54.790Z,65.35
2023-01-29T17:00:37.396Z,53.40
2023-01-29T17:03:07.825Z,47.67
2023-01-29T17:05:39.688Z,73.30
2023-01-29T17:08:09.249Z,79.00
2023-01-29T17:10:39.184Z,67.82
2023-01-29T17:13:10.455Z,58.40
2023-01-29T17:15:47.337Z,51.40
2023-01-29T17:18:19.494Z,49.65
2023-01-29T17:20:48.293Z,44.72
2023-01-29T17:23:16.437Z,41.20
2023-01-29T17:25:49.232Z,47.85
2023-01-29T17:28:18.749Z,44.65
2023-01-29T17:31:00.349Z,51.00
2023-01-29T17:33:33.902Z,41.03
2023-01-29T17:36:02.260Z,46.35
2023-01-29T17:38:31.284Z,43.65
2023-01-29T17:41:06.116Z,50.00
2023-01-29T17:43:34.116Z,46.20
2023-01-29T17:46:02.131Z,46.22
2023-01-29T17:48:32.129Z,62.00
2023-01-29T17:51:03.741Z,61.47
2023-01-29T17:53:44.812Z,47.17
2023-01-29T17:56:19.618Z,46.60
2023-01-29T17:58:47.725Z,48.45
2023-01-29T18:01:15.620Z,47.50
2023-01-29T18:03:43.921Z,52.42
2023-01-29T18:06:18.915Z,38.90
2023-01-29T18:08:47.303Z,43.75
2023-01-29T18:11:15.323Z,44.97
2023-01-29T18:13:45.029Z,49.42
2023-01-29T18:16:13.456Z,52.60
2023-01-29T18:18:41.456Z,47.95
2023-01-29T18:21:10.621Z,54.00
2023-01-29T18:23:38.909Z,43.05
2023-01-29T18:26:07.580Z,45.50
2023-01-29T18:28:35.507Z,46.08
2023-01-29T18:31:06.047Z,45.10
2023-01-29T18:33:34.399Z,43.20
2023-01-29T18:36:04.892Z,42.60
2023-01-29T18:38:33.788Z,53.75
2023-01-29T18:41:06.602Z,40.10
2023-01-29T18:43:34.980Z,51.22
2023-01-29T18:46:04.738Z,45.30
2023-01-29T18:48:32.780Z,49.70
2023-01-29T18:51:01.334Z,58.08
2023-01-29T18:53:29.722Z,42.80
2023-01-29T18:55:59.053Z,40.87
2023-01-29T18:58:36.374Z,40.97
2023-01-29T19:01:11.795Z,46.77
2023-01-29T19:03:40.674Z,47.83
2023-01-29T19:06:11.197Z,50.60
2023-01-29T19:08:39.620Z,46.95
2023-01-29T19:11:09.421Z,55.83
2023-01-29T19:13:38.504Z,51.10
2023-01-29T19:16:10.962Z,52.33
2023-01-29T19:18:39.451Z,46.03
2023-01-29T19:21:08.921Z,52.37
2023-01-29T19:23:37.465Z,47.43
2023-01-29T19:26:06.072Z,48.17
2023-01-29T19:28:34.906Z,47.73
2023-01-29T19:31:04.362Z,53.77
2023-01-29T19:33:34.922Z,56.27
2023-01-29T19:36:03.736Z,56.10
2023-01-29T19:38:33.778Z,57.80
2023-01-29T19:41:05.913Z,57.33
2023-01-29T19:43:45.589Z,54.23
2023-01-29T19:46:39.823Z,49.10
2023-01-29T19:49:10.789Z,86.03
2023-01-29T19:51:40.917Z,44.70
2023-01-29T19:54:11.020Z,41.67
2023-01-29T19:56:42.712Z,44.10
2023-01-29T19:59:13.402Z,48.00
2023-01-29T20:01:43.665Z,48.37
2023-01-29T20:04:19.349Z,49.60
2023-01-29T20:06:47.555Z,44.33
2023-01-29T20:09:17.803Z,46.03
2023-01-29T20:11:48.132Z,47.93
2023-01-29T20:14:18.148Z,50.50
2023-01-29T20:16:47.898Z,41.17
2023-01-29T20:19:20.142Z,50.10
2023-01-29T20:21:52.638Z,59.93
2023-01-29T20:24:21.154Z,57.40
2023-01-29T20:26:49.334Z,65.40
2023-01-29T20:29:18.808Z,58.03
2023-01-29T20:31:48.254Z,49.20
2023-01-29T20:34:19.491Z,52.47
2023-01-29T20:36:47.829Z,54.60
2023-01-29T20:39:16.049Z,49.30
2023-01-29T20:41:47.546Z,45.17
2023-01-29T20:44:16.201Z,47.80
2023-01-29T20:46:44.771Z,45.50
2023-01-29T20:49:13.539Z,41.83
2023-01-29T20:51:44.382Z,46.27
2023-01-29T20:54:15.578Z,40.30
2023-01-29T20:56:45.317Z,40.10
2023-01-29T20:59:15.295Z,51.37
2023-01-29T21:01:44.082Z,50.40
2023-01-29T21:04:12.048Z,56.47
2023-01-29T21:06:41.428Z,55.23
2023-01-29T21:09:10.883Z,52.27
2023-01-29T21:11:38.877Z,49.27
2023-01-29T21:14:07.627Z,42.73
2023-01-29T21:16:35.885Z,56.13
2023-01-29T21:19:04.146Z,46.37
2023-01-29T21:21:32.509Z,56.17
2023-01-29T21:24:00.595Z,49.63
2023-01-29T21:26:30.098Z,53.27
2023-01-29T21:28:58.359Z,53.57
2023-01-29T21:31:26.499Z,57.33
2023-01-29T21:33:54.494Z,61.90
2023-01-29T21:36:23.093Z,66.47
2023-01-29T21:38:51.359Z,60.37
2023-01-29T21:41:19.568Z,61.97
2023-01-29T21:43:48.147Z,60.87
2023-01-29T21:46:16.194Z,46.53
2023-01-29T21:48:44.588Z,42.57
2023-01-29T21:51:12.532Z,72.23
2023-01-29T21:53:40.482Z,60.37
2023-01-29T21:56:09.536Z,54.13
2023-01-29T21:58:37.465Z,48.27
2023-01-29T22:01:36.403Z,43.23
2023-01-29T22:03:55.771Z,41.27
2023-01-29T22:06:24.069Z,53.67
2023-01-29T22:08:52.240Z,56.13
2023-01-29T22:11:20.713Z,45.33
2023-01-29T22:13:48.731Z,47.20
2023-01-29T22:16:17.979Z,42.27
2023-01-29T22:18:46.415Z,39.07
2023-01-29T22:21:14.963Z,46.93
2023-01-29T22:23:42.871Z,47.37
2023-01-29T22:26:12.114Z,47.50
2023-01-29T22:28:40.127Z,44.70
2023-01-29T22:31:08.460Z,51.87
2023-01-29T22:33:37.828Z,42.27
2023-01-29T22:36:06.806Z,45.40
2023-01-29T22:38:34.710Z,46.73
2023-01-29T22:41:04.690Z,43.57
2023-01-29T22:43:33.062Z,42.83
2023-01-29T22:46:01.056Z,43.10
2023-01-29T22:48:30.585Z,43.03
2023-01-29T22:51:11.367Z,45.67
2023-01-29T22:53:40.984Z,42.87
2023-01-29T22:56:10.024Z,44.37
2023-01-29T22:58:38.614Z,41.60
2023-01-29T23:01:06.767Z,42.27
2023-01-29T23:03:35.504Z,39.80
2023-01-29T23:06:05.919Z,40.93
2023-01-29T23:08:33.984Z,50.03
2023-01-29T23:11:14.758Z,48.47
2023-01-29T23:13:44.304Z,47.33
2023-01-29T23:16:12.922Z,49.90
2023-01-29T23:18:41.745Z,46.60
2023-01-29T23:21:12.581Z,41.40
2023-01-29T23:23:40.872Z,39.27
2023-01-29T23:26:27.035Z,43.10
2023-01-29T23:28:55.656Z,39.57
2023-01-29T23:31:24.008Z,36.87
2023-01-29T23:33:52.248Z,36.27
2023-01-29T23:36:21.514Z,36.20
2023-01-29T23:38:49.360Z,41.87
2023-01-29T23:41:17.729Z,47.27
2023-01-29T23:43:46.092Z,41.73
2023-01-29T23:46:14.334Z,38.10
2023-01-29T23:48:42.750Z,39.83
2023-01-29T23:51:10.823Z,43.37
2023-01-29T23:53:40.147Z,36.53
2023-01-29T23:56:08.853Z,39.97
2023-01-29T23:58:36.709Z,46.63
